Spuigracht — PBBB — position and weather

sailwx.info

Track history (hours):
 
Tides and Currents Weather Stations Pressure Air Temp Water Temp Dewpoint Dewpoint Depression Visibility Wind Speed Wind Dir Waves Ship Positions

Spuigracht

Last reported at 2019-Nov-17 04:29 UTC. Time now 2019-Nov-17 07:59 UTC.
Position N 59°32' E 021°48'.

Length 173 m; beam 26 m.

Type: Pleasure craft. MMSI: 244444108.

Date/timePositionNaut miles runAvg speedWind from/ knotsBaromVisibWave heightAir tempDewpointWater temp
2019-Nov-17 04:29N 59°32' E 021°48'713.9
2019-Nov-17 04:00N 59°31' E 022°01'814.6
2019-Nov-17 03:29N 59°30' E 022°16'2914.9
2019-Nov-17 01:31N 59°36' E 023°12'  
2019-Nov-14 18:49N 59°48' E 024°03'2 7.7
2019-Nov-14 18:30N 59°46' E 023°59'4 6.9
2019-Nov-14 17:56N 59°42' E 024°00'3 6.2
2019-Nov-14 17:30N 59°40' E 023°58'14413.1
2019-Nov-14 06:30N 60°02' E 019°15'21714.9
2019-Nov-13 15:59N 63°34' E 020°54'4 0.1
2019-Nov-12 03:00N 63°35' E 021°03'714.4
2019-Nov-12 02:30N 63°33' E 020°47'1513.8
2019-Nov-12 01:24N 63°20' E 020°27'12515.5
2019-Nov-11 17:18N 61°16' E 021°00'515.6
2019-Nov-11 17:00N 61°11' E 021°02'713.3
2019-Nov-11 16:30N 61°07' E 021°13'6 4.3
2019-Nov-11 15:00N 61°08' E 021°26'0 0.0
2019-Nov-11 13:00N 61°08' E 021°26'0 0.0
2019-Nov-11 11:59N 61°08' E 021°26'0 0.0
2019-Nov-11 10:29N 61°08' E 021°26'0 0.0
2019-Nov-11 08:59N 61°08' E 021°26'0 0.0
2019-Nov-11 05:59N 61°08' E 021°26'0 0.0
2019-Nov-11 05:29N 61°08' E 021°26'0 0.0
2019-Nov-11 03:29N 61°08' E 021°26'0 0.0
2019-Nov-11 02:29N 61°08' E 021°26'0 0.0
2019-Nov-11 01:59N 61°08' E 021°26'0 0.0
2019-Nov-11 00:59N 61°08' E 021°26'0 0.0
2019-Nov-11 00:29N 61°08' E 021°26'0 0.0
2019-Nov-10 23:29N 61°08' E 021°26'0 0.0
2019-Nov-10 22:29N 61°08' E 021°26'0 0.0
2019-Nov-10 20:59N 61°08' E 021°26'0 0.0
2019-Nov-10 18:29N 61°08' E 021°26'0 0.0
2019-Nov-10 15:59N 61°08' E 021°26'0 0.0
2019-Nov-10 08:59N 61°08' E 021°26'0 0.0
2019-Nov-10 05:59N 61°08' E 021°26'0 0.0
2019-Nov-10 03:59N 61°08' E 021°26'0 0.0
2019-Nov-10 00:58N 61°08' E 021°26'0 0.0
2019-Nov-09 23:28N 61°08' E 021°26'0 0.0
2019-Nov-09 22:58N 61°08' E 021°26'0 0.0
2019-Nov-09 16:28N 61°08' E 021°26'0 0.0
2019-Nov-09 15:22N 61°08' E 021°26'0 0.0
2019-Nov-09 10:28N 61°08' E 021°26'0 0.0
2019-Nov-09 09:58N 61°08' E 021°26'0 0.0
2019-Nov-09 05:28N 61°08' E 021°26'0 0.0
2019-Nov-09 03:28N 61°08' E 021°26'0 0.0
2019-Nov-09 02:58N 61°08' E 021°26'0 0.0
2019-Nov-09 01:58N 61°08' E 021°26'0 0.0
2019-Nov-09 00:28N 61°08' E 021°26'0 0.0
2019-Nov-08 23:28N 61°08' E 021°26'0 0.0
2019-Nov-08 21:58N 61°08' E 021°26'0 0.0
2019-Nov-08 21:28N 61°08' E 021°26'0 0.0
2019-Nov-08 20:58N 61°08' E 021°26'0 0.0
2019-Nov-08 20:28N 61°08' E 021°26'0 0.0
2019-Nov-08 17:28N 61°08' E 021°26'0 0.0
2019-Nov-08 16:28N 61°08' E 021°26'0 0.0
2019-Nov-08 11:00N 61°08' E 021°26'0 0.0
2019-Nov-08 09:30N 61°08' E 021°26'0 0.0
2019-Nov-08 09:00N 61°08' E 021°26'0 0.0
2019-Nov-08 08:27N 61°08' E 021°26'0 0.0
2019-Nov-08 06:58N 61°08' E 021°26'  
Track history (hours):
 
Tides and Currents Weather Stations Pressure Air Temp Water Temp Dewpoint Dewpoint Depression Visibility Wind Speed Wind Dir Waves Ship Positions

Spuigracht

Last reported at 2019-Nov-17 04:29 UTC. Time now 2019-Nov-17 07:59 UTC.
Position N 59°32' E 021°48'.

Length 173 m; beam 26 m.

Type: Pleasure craft. MMSI: 244444108.

Date/timePositionNaut miles runAvg speedWind from/ knotsBaromVisibWave heightAir tempDewpointWater temp
2019-Nov-17 04:29N 59°32' E 021°48'713.9
2019-Nov-17 04:00N 59°31' E 022°01'814.6
2019-Nov-17 03:29N 59°30' E 022°16'2914.9
2019-Nov-17 01:31N 59°36' E 023°12'  
2019-Nov-14 18:49N 59°48' E 024°03'2 7.7
2019-Nov-14 18:30N 59°46' E 023°59'4 6.9
2019-Nov-14 17:56N 59°42' E 024°00'3 6.2
2019-Nov-14 17:30N 59°40' E 023°58'14413.1
2019-Nov-14 06:30N 60°02' E 019°15'21714.9
2019-Nov-13 15:59N 63°34' E 020°54'4 0.1
2019-Nov-12 03:00N 63°35' E 021°03'714.4
2019-Nov-12 02:30N 63°33' E 020°47'1513.8
2019-Nov-12 01:24N 63°20' E 020°27'12515.5
2019-Nov-11 17:18N 61°16' E 021°00'515.6
2019-Nov-11 17:00N 61°11' E 021°02'713.3
2019-Nov-11 16:30N 61°07' E 021°13'6 4.3
2019-Nov-11 15:00N 61°08' E 021°26'0 0.0
2019-Nov-11 13:00N 61°08' E 021°26'0 0.0
2019-Nov-11 11:59N 61°08' E 021°26'0 0.0
2019-Nov-11 10:29N 61°08' E 021°26'0 0.0
2019-Nov-11 08:59N 61°08' E 021°26'0 0.0
2019-Nov-11 05:59N 61°08' E 021°26'0 0.0
2019-Nov-11 05:29N 61°08' E 021°26'0 0.0
2019-Nov-11 03:29N 61°08' E 021°26'0 0.0
2019-Nov-11 02:29N 61°08' E 021°26'0 0.0
2019-Nov-11 01:59N 61°08' E 021°26'0 0.0
2019-Nov-11 00:59N 61°08' E 021°26'0 0.0
2019-Nov-11 00:29N 61°08' E 021°26'0 0.0
2019-Nov-10 23:29N 61°08' E 021°26'0 0.0
2019-Nov-10 22:29N 61°08' E 021°26'0 0.0
2019-Nov-10 20:59N 61°08' E 021°26'0 0.0
2019-Nov-10 18:29N 61°08' E 021°26'0 0.0
2019-Nov-10 15:59N 61°08' E 021°26'0 0.0
2019-Nov-10 08:59N 61°08' E 021°26'0 0.0
2019-Nov-10 05:59N 61°08' E 021°26'0 0.0
2019-Nov-10 03:59N 61°08' E 021°26'0 0.0
2019-Nov-10 00:58N 61°08' E 021°26'0 0.0
2019-Nov-09 23:28N 61°08' E 021°26'0 0.0
2019-Nov-09 22:58N 61°08' E 021°26'0 0.0
2019-Nov-09 16:28N 61°08' E 021°26'0 0.0
2019-Nov-09 15:22N 61°08' E 021°26'0 0.0
2019-Nov-09 10:28N 61°08' E 021°26'0 0.0
2019-Nov-09 09:58N 61°08' E 021°26'0 0.0
2019-Nov-09 05:28N 61°08' E 021°26'0 0.0
2019-Nov-09 03:28N 61°08' E 021°26'0 0.0
2019-Nov-09 02:58N 61°08' E 021°26'0 0.0
2019-Nov-09 01:58N 61°08' E 021°26'0 0.0
2019-Nov-09 00:28N 61°08' E 021°26'0 0.0
2019-Nov-08 23:28N 61°08' E 021°26'0 0.0
2019-Nov-08 21:58N 61°08' E 021°26'0 0.0
2019-Nov-08 21:28N 61°08' E 021°26'0 0.0
2019-Nov-08 20:58N 61°08' E 021°26'0 0.0
2019-Nov-08 20:28N 61°08' E 021°26'0 0.0
2019-Nov-08 17:28N 61°08' E 021°26'0 0.0
2019-Nov-08 16:28N 61°08' E 021°26'0 0.0
2019-Nov-08 11:00N 61°08' E 021°26'0 0.0
2019-Nov-08 09:30N 61°08' E 021°26'0 0.0
2019-Nov-08 09:00N 61°08' E 021°26'0 0.0
2019-Nov-08 08:27N 61°08' E 021°26'0 0.0
2019-Nov-08 06:58N 61°08' E 021°26'  

Dump ship's entire track history